METAR Data
IDs: Format: Raw Decoded Include TAF

Data at: 1108 UTC 18 Jan 2022

KBIV 181053Z AUTO 25008KT 10SM BKN020 OVC030 00/M03 A2993 RMK AO2 SLP144 T00001033